Aeroporto :







RITROVATECI SU...

 
LOGIN :

Iscrizione | Disclaimer

   EN    FR    IT 

 









Sommario :    VFR   VFR Marginale   IFR   IFR Intensivo   IFR Molto Intensivo
Visibilità : 
Base nubi : 
>= 8 km
>= 3000ft
5 / 8 km
1000 / 3000 ft
1500m / 5 km
500 / 1000 ft
800 / 1500m
200 / 500 ft
< 800m
< 200 ft
Simboli :   Temporali  Nebbia  Neve Forte  Precipitazioni Forti  Vento > 20 kt






- Altitudine del aeroporto : 461 ft
- Codice IATA : YYT


CYYT - St John's Int

ULTIMO METAR :
  • 101300Z 16019G27KT 15SM FEW006 BKN060 OVC150 M00/M02 A2970 RMK SF2SC5AC1 SLP067

METARs OBSOLETI :
  • 101200Z 15019G24KT 15SM OVC160 M01/M05 A2970 RMK AC8 SLP065
  • 101100Z 16012KT 15SM SCT025 OVC180 M02/M04 A2972 RMK SC3AC5 SLP074

TAF TAF CYYT
Valido dal 10 a 12 ore il 11 a 12 ore UTC


101139Z 1012/1112 16012G22KT P6SM SCT020 OVC180
TEMPO 1013/1015 11/2SM -SHSN OVC020
BECMG 1013/1014 15025G35KT
FM101500 15025G40KT 11/2SM -SHSN BKN007 OVC012
TEMPO 1015/1017 4SM -RASN -PL BR SCT007 OVC012
PROB30 1015/1017 3SM -FZRA -PL BR BKN003 OVC010
FM101700 15030G45KT 2SM -RA BR OVC005
TEMPO 1017/1021 6SM -RA BR
FM102100 18020G35KT 3SM -RA BR OVC008
TEMPO 1021/1023 P6SM NSW SCT008 OVC015
FM102300 21012KT P6SM FEW010 SCT100
FM110400 23012KT 6SM -RA BR BKN007 BKN080
FM110600 19012KT 2SM -DZ BR BKN003 OVC008
FM111100 21010KT P6SM FEW008 BKN150 RMK NXT FCST BY 101800Z



MetMap, La meteo Aeronautica in un colpo d'occhio ! - Copyright ORBIFLY Dicembre 2007 - Disclaimer

ORBIFLY MET'MAP TEAM :

Programmazione e sviluppo : Alexandra Zaïnal
Concezione : Baudouin d'Aumeries
Aiuto per la programmazione : Marc-Olivier Méhu
Supporto tecnico e logistico : Manuel Goepfert
Aiuto per la traduzione : Arnaldo La Scala

Contatto : metmap@orbifly.com




FONTI E CREDITI :

   NOAA